Aérodrome :
LOGIN :

S'inscrire | Disclaimer

   EN    FR    IT 

 










Légende :    VFR   VFR Marginal   IFR   IFR Intensif   IFR Très Intensif
Visi : 
Plafond : 
>= 8 km
>= 3000ft
5 à 8 km
1000 à 3000 ft
1500m à 5 km
500 à 1000 ft
800 à 1500m
200 à 500 ft
< 800m
< 200 ft
Symboles :   Orages  Brouillard  Fortes neiges  Fortes précipitations  Vent > 20 kt
SIGMETs :   Divers  Orages  Givrage  Turbulence  Onde Orograph.  Cendres Volcan.







- Altitude de l'aérodrome : 1504 ft
- Code IATA : PNA


LEPP - Noain Pamplona

DERNIER METAR :
  • 151000Z VRB02KT 9999 FEW025 15/08 Q1008

METARs EXPIRÉS :
  • 150930Z VRB02KT 9999 FEW025 14/08 Q1008
  • 150900Z 29003KT 230V350 9999 FEW025 14/08 Q1008
  • 150830Z 30003KT 240V350 9999 FEW025 13/08 Q1008
  • 150800Z 25001KT 9999 FEW022 SCT059 13/08 Q1008
  • 150730Z VRB02KT 9999 FEW022 SCT059 12/08 Q1008

TAF TAF LEPP
Valide du 15 à 09h jusqu'au 16 à 09h UTC


150800Z 1509/1609 33007KT 9999 SCT020 SCT050 TX16/1514Z TN09/1603Z
PROB40
TEMPO 1600/1607 0800 BCFG
Pas de NOTAMs connus pour ce terrain.



MET'MAP, la Météo Aéronautique d'un coup d'oeil ! - Copyright ORBIFLY Décembre 2007 - Disclaimer

ORBIFLY MET'MAP TEAM :

Programmation & Développement : Alexandra Zaïnal
Conception & Développement : Baudouin d'Aumeries
Co-Programmation & Développement : Marc-Olivier Méhu
Soutien technique & logistique : Manuel Goepfert

Contact : metmap@orbifly.com




SOURCES & CREDITS :

   NOAA